Time;durP1;ratioP1;P1;durP2;ratioP2;P2;SDS_P1;SDS_P2;PMS_P1;PMS_P2;Temp;Humidity;BMP_temperature;BMP_pressure;BME280_temperature;BME280_humidity;BME280_pressure;Samples;Min_cycle;Max_cycle;Signal;HPM_P1;HPM_P2
2023/04/22 00:01:55;;;;;;;;;15.50;11.75;;;;;11.10;76.54;100827.72;4989723;28;10586;-68
2023/04/22 00:04:21;;;;;;;;;11.25;10.75;;;;;11.08;76.37;100818.16;5000640;28;10734;-69
2023/04/22 00:06:48;;;;;;;;;10.50;10.50;;;;;11.05;76.37;100822.06;5002947;28;11349;-70
2023/04/22 00:09:15;;;;;;;;;9.75;9.75;;;;;11.04;76.26;100817.72;4997249;28;10758;-70
2023/04/22 00:11:41;;;;;;;;;12.50;12.50;;;;;11.03;76.60;100812.53;5002860;28;10634;-67
2023/04/22 00:14:08;;;;;;;;;14.50;14.25;;;;;11.01;76.20;100815.41;5002824;28;10631;-66
2023/04/22 00:16:34;;;;;;;;;16.25;12.75;;;;;10.98;76.07;100810.44;4993408;28;10678;-70
2023/04/22 00:19:01;;;;;;;;;14.75;14.00;;;;;10.96;76.41;100817.03;4994864;28;11413;-70
2023/04/22 00:21:27;;;;;;;;;12.00;10.50;;;;;10.93;76.33;100820.94;4996301;28;10799;-69
2023/04/22 00:23:54;;;;;;;;;16.25;13.75;;;;;10.90;76.23;100824.06;4984300;28;11355;-69
2023/04/22 00:26:21;;;;;;;;;17.75;13.75;;;;;10.84;76.40;100816.75;4998799;28;10661;-67
2023/04/22 00:28:48;;;;;;;;;16.75;12.50;;;;;10.81;76.39;100822.53;4997661;28;10795;-67
2023/04/22 00:31:14;;;;;;;;;16.00;12.50;;;;;10.81;76.36;100826.03;4995171;28;10606;-69
2023/04/22 00:33:41;;;;;;;;;13.50;13.50;;;;;10.80;76.61;100826.25;4978935;28;10723;-70
2023/04/22 00:36:08;;;;;;;;;18.00;13.75;;;;;10.78;76.51;100820.25;5003128;28;10470;-68
2023/04/22 00:38:34;;;;;;;;;17.50;16.00;;;;;10.78;76.51;100818.38;4997424;28;10671;-69
2023/04/22 00:41:01;;;;;;;;;11.00;11.00;;;;;10.79;76.89;100813.84;4989023;28;10811;-69
2023/04/22 00:43:28;;;;;;;;;16.75;14.25;;;;;10.79;76.75;100819.22;4977157;28;10545;-70
2023/04/22 00:45:56;;;;;;;;;13.75;13.75;;;;;10.80;76.83;100812.78;4981160;28;10750;-68
2023/04/22 00:48:23;;;;;;;;;12.50;12.50;;;;;10.77;76.51;100816.69;4989614;28;10650;-69
2023/04/22 00:50:53;;;;;;;;;14.25;13.00;;;;;10.75;76.42;100815.25;5001869;28;10707;-69
2023/04/22 00:53:19;;;;;;;;;16.25;15.25;;;;;10.73;76.47;100806.53;4999154;28;10735;-69
2023/04/22 00:55:46;;;;;;;;;12.75;11.00;;;;;10.71;76.63;100805.91;4973814;28;10748;-70
2023/04/22 00:58:13;;;;;;;;;16.75;12.75;;;;;10.71;76.88;100809.41;4990869;28;10608;-68
2023/04/22 01:00:39;;;;;;;;;19.00;15.25;;;;;10.70;76.45;100812.31;4974200;28;10713;-69
2023/04/22 01:03:07;;;;;;;;;16.00;12.25;;;;;10.68;76.76;100812.50;4993026;28;10783;-70
2023/04/22 01:05:34;;;;;;;;;15.50;14.50;;;;;10.66;76.43;100821.81;4999963;28;10868;-69
2023/04/22 01:08:01;;;;;;;;;17.25;13.75;;;;;10.63;76.58;100820.34;4993318;28;10844;-67
2023/04/22 01:10:28;;;;;;;;;16.25;16.25;;;;;10.60;76.77;100821.53;4991484;28;10822;-69
2023/04/22 01:12:54;;;;;;;;;16.50;14.00;;;;;10.57;76.44;100810.34;4973440;28;10808;-67
2023/04/22 01:15:21;;;;;;;;;15.50;15.50;;;;;10.57;76.48;100821.09;4994506;28;10811;-64
2023/04/22 01:17:47;;;;;;;;;14.25;13.75;;;;;10.55;76.90;100820.47;4993325;28;10702;-69
2023/04/22 01:20:14;;;;;;;;;20.75;15.00;;;;;10.52;76.36;100823.56;4996655;28;10675;-70
2023/04/22 01:22:44;;;;;;;;;17.25;14.25;;;;;10.50;76.77;100820.25;4993248;28;10901;-70
2023/04/22 01:25:11;;;;;;;;;17.00;17.00;;;;;10.46;76.45;100829.72;4997730;28;10762;-70
2023/04/22 01:27:38;;;;;;;;;17.75;13.25;;;;;10.44;76.87;100831.75;4996259;28;10935;-69
2023/04/22 01:30:07;;;;;;;;;24.00;16.00;;;;;10.38;76.63;100831.50;4982083;28;10882;-69
2023/04/22 01:32:33;;;;;;;;;17.00;16.00;;;;;10.34;76.98;100824.03;5010316;28;10851;-69
2023/04/22 01:35:00;;;;;;;;;19.25;16.00;;;;;10.34;76.91;100830.22;4989005;28;10785;-69
2023/04/22 01:37:27;;;;;;;;;16.50;16.50;;;;;10.32;76.59;100834.97;4972946;28;10871;-70
2023/04/22 01:39:55;;;;;;;;;19.50;18.25;;;;;10.32;76.79;100829.59;4990814;28;10939;-69
2023/04/22 01:42:23;;;;;;;;;18.25;13.75;;;;;10.30;76.63;100828.97;4998719;28;10992;-69
2023/04/22 01:44:49;;;;;;;;;13.50;11.50;;;;;10.28;76.68;100831.00;4993088;28;10869;-70
2023/04/22 01:47:16;;;;;;;;;16.75;15.00;;;;;10.28;76.91;100832.84;5009182;28;11020;-69
2023/04/22 01:49:42;;;;;;;;;16.00;15.00;;;;;10.25;76.93;100826.03;4976470;28;10968;-68
2023/04/22 01:52:09;;;;;;;;;23.00;18.75;;;;;10.21;76.69;100827.41;4989155;28;11209;-69
2023/04/22 01:54:36;;;;;;;;;19.50;15.00;;;;;10.20;77.18;100828.41;4989350;28;11048;-70
2023/04/22 01:57:09;;;;;;;;;17.75;16.75;;;;;10.21;76.98;100823.84;4969608;28;11020;-67
2023/04/22 01:59:36;;;;;;;;;14.00;13.50;;;;;10.19;76.81;100823.22;4984127;28;11063;-69
2023/04/22 02:02:03;;;;;;;;;18.75;18.75;;;;;10.19;77.10;100828.59;4990723;28;10765;-69
2023/04/22 02:04:30;;;;;;;;;17.25;15.75;;;;;10.17;76.93;100828.81;4994241;28;11174;-69
2023/04/22 02:06:56;;;;;;;;;18.50;16.75;;;;;10.18;77.06;100816.19;4992150;28;11022;-68
2023/04/22 02:09:23;;;;;;;;;19.50;17.75;;;;;10.15;76.95;100831.66;5000328;28;10986;-67
2023/04/22 02:11:49;;;;;;;;;17.75;15.00;;;;;10.16;77.33;100825.25;4995963;28;11114;-70
2023/04/22 02:14:19;;;;;;;;;24.50;23.75;;;;;10.14;77.16;100823.81;4994744;28;10926;-70
2023/04/22 02:16:46;;;;;;;;;21.50;20.50;;;;;10.12;76.79;100818.59;4980547;28;11009;-70
2023/04/22 02:19:12;;;;;;;;;26.25;23.00;;;;;10.12;77.39;100823.97;4994925;28;10975;-70
2023/04/22 02:21:39;;;;;;;;;23.00;21.00;;;;;10.10;76.85;100817.13;4990150;28;10974;-67
2023/04/22 02:24:05;;;;;;;;;19.00;18.25;;;;;10.09;76.88;100816.31;4996971;28;11065;-69
2023/04/22 02:26:32;;;;;;;;;18.25;17.75;;;;;10.07;76.80;100820.22;5000306;28;10876;-70
2023/04/22 02:28:59;;;;;;;;;22.25;19.50;;;;;10.06;77.43;100821.25;4993780;28;10948;-68
2023/04/22 02:31:26;;;;;;;;;22.50;21.00;;;;;10.03;76.96;100817.06;4978646;28;10950;-70
2023/04/22 02:33:53;;;;;;;;;23.75;21.00;;;;;10.01;77.19;100818.28;4993102;28;11050;-70
2023/04/22 02:36:19;;;;;;;;;25.00;18.75;;;;;9.98;77.07;100808.75;4985138;28;11013;-68
2023/04/22 02:38:48;;;;;;;;;27.25;24.00;;;;;9.97;77.05;100812.47;4971417;28;11335;-70
2023/04/22 02:41:14;;;;;;;;;29.50;26.50;;;;;9.95;77.48;100808.28;4993832;28;11177;-70
2023/04/22 02:43:44;;;;;;;;;25.00;20.50;;;;;9.94;77.27;100814.69;4983557;28;11133;-69
2023/04/22 02:46:14;;;;;;;;;23.50;20.25;;;;;9.92;77.58;100806.81;4993952;28;11104;-68
2023/04/22 02:48:42;;;;;;;;;21.00;18.00;;;;;9.91;77.47;100797.91;4999375;28;11104;-70
2023/04/22 02:51:08;;;;;;;;;20.75;17.50;;;;;9.89;77.80;100808.03;4991262;28;11094;-69
2023/04/22 02:53:35;;;;;;;;;21.50;19.50;;;;;9.86;77.43;100789.59;4982758;28;10945;-69
2023/04/22 02:56:02;;;;;;;;;24.50;19.75;;;;;9.84;77.70;100799.72;5000116;28;11088;-67
2023/04/22 02:58:28;;;;;;;;;22.00;18.50;;;;;9.85;77.63;100796.00;4981597;28;11125;-69
2023/04/22 03:00:56;;;;;;;;;26.00;21.75;;;;;9.86;77.65;100797.66;4990214;28;11177;-69
2023/04/22 03:03:23;;;;;;;;;16.00;16.00;;;;;9.83;77.22;100781.91;4997486;28;11106;-69
2023/04/22 03:05:49;;;;;;;;;23.25;20.75;;;;;9.83;77.14;100776.53;4990005;28;11573;-67
2023/04/22 03:08:16;;;;;;;;;21.75;19.00;;;;;9.82;77.31;100779.41;4997232;28;11188;-69
2023/04/22 03:10:42;;;;;;;;;26.50;21.00;;;;;9.81;77.32;100788.50;4991411;28;10844;-67
2023/04/22 03:13:09;;;;;;;;;24.00;17.50;;;;;9.79;77.32;100786.00;4997982;28;11084;-69
2023/04/22 03:15:35;;;;;;;;;24.50;21.00;;;;;9.78;77.43;100780.81;5007731;28;11001;-69
2023/04/22 03:18:02;;;;;;;;;21.00;20.75;;;;;9.76;77.42;100777.47;4998394;28;10934;-69
2023/04/22 03:20:28;;;;;;;;;21.75;21.25;;;;;9.75;76.94;100768.56;5002990;28;11176;-67
2023/04/22 03:22:55;;;;;;;;;27.25;20.75;;;;;9.72;77.20;100770.81;5005742;28;11533;-68
2023/04/22 03:25:25;;;;;;;;;25.00;25.00;;;;;9.68;77.11;100775.72;4983652;28;11025;-69
2023/04/22 03:27:54;;;;;;;;;23.00;20.50;;;;;9.65;77.22;100766.22;4992138;28;11154;-69
2023/04/22 03:30:20;;;;;;;;;30.00;26.00;;;;;9.62;77.08;100760.38;4990926;28;11087;-68
2023/04/22 03:32:47;;;;;;;;;26.25;21.25;;;;;9.59;77.53;100758.91;4989918;28;11926;-66
2023/04/22 03:35:19;;;;;;;;;29.75;23.50;;;;;9.55;77.29;100762.16;4972298;28;11111;-69
2023/04/22 03:37:48;;;;;;;;;25.75;23.50;;;;;9.50;77.26;100757.34;4986814;28;10916;-69
2023/04/22 03:40:19;;;;;;;;;25.75;25.00;;;;;9.47;77.44;100757.72;4991637;28;11227;-69
2023/04/22 03:42:47;;;;;;;;;26.25;24.25;;;;;9.44;77.00;100750.06;4993819;28;11179;-70
2023/04/22 03:45:16;;;;;;;;;27.75;23.25;;;;;9.41;76.96;100750.44;5000061;28;11200;-69
2023/04/22 03:47:47;;;;;;;;;25.75;21.75;;;;;9.39;76.88;100747.91;4969179;28;11112;-69
2023/04/22 03:50:21;;;;;;;;;31.50;29.00;;;;;9.37;77.55;100746.47;4992011;28;11336;-70
2023/04/22 03:52:50;;;;;;;;;22.25;18.25;;;;;9.33;77.27;100747.84;4992123;28;11318;-69
2023/04/22 03:55:19;;;;;;;;;26.50;21.75;;;;;9.32;77.00;100735.44;4975744;28;11369;-70
2023/04/22 03:57:47;;;;;;;;;29.50;27.50;;;;;9.32;77.17;100740.81;4998566;28;11440;-71
2023/04/22 04:00:14;;;;;;;;;28.50;23.75;;;;;9.31;77.30;100736.44;4997322;28;11448;-68
2023/04/22 04:02:43;;;;;;;;;26.25;24.00;;;;;9.31;76.87;100739.13;4984603;28;11275;-69
2023/04/22 04:05:14;;;;;;;;;28.50;25.00;;;;;9.29;77.73;100727.75;5000306;28;11458;-69
2023/04/22 04:07:41;;;;;;;;;32.00;25.75;;;;;9.29;77.60;100733.97;4986982;28;12183;-69
2023/04/22 04:10:09;;;;;;;;;41.00;30.50;;;;;9.29;77.61;100733.13;4993151;28;13572;-67
2023/04/22 04:12:36;;;;;;;;;27.50;25.00;;;;;9.28;77.32;100729.63;4980356;28;11511;-67
2023/04/22 04:15:03;;;;;;;;;33.75;30.00;;;;;9.27;77.92;100732.47;4998790;28;12140;-69
2023/04/22 04:17:30;;;;;;;;;37.25;33.00;;;;;9.26;77.57;100728.97;4990453;28;11581;-68
2023/04/22 04:19:58;;;;;;;;;37.50;31.25;;;;;9.26;77.44;100728.13;4998544;28;11786;-69
2023/04/22 04:22:26;;;;;;;;;27.00;26.00;;;;;9.25;77.74;100729.16;4982608;28;11454;-68
2023/04/22 04:24:56;;;;;;;;;35.00;32.75;;;;;9.24;77.96;100725.66;4989545;28;12592;-68
2023/04/22 04:27:27;;;;;;;;;30.00;28.25;;;;;9.22;77.98;100722.31;4985716;28;11618;-69
2023/04/22 04:29:54;;;;;;;;;33.50;29.75;;;;;9.24;77.82;100722.13;4994671;28;11766;-69
2023/04/22 04:32:41;;;;;;;;;31.75;26.25;;;;;9.21;78.04;100709.91;4988244;28;11529;-69
2023/04/22 04:35:14;;;;;;;;;32.75;25.00;;;;;9.18;77.42;100721.00;4990840;28;11288;-68
2023/04/22 04:37:45;;;;;;;;;27.75;25.75;;;;;9.17;77.71;100724.72;4992999;28;11431;-69
2023/04/22 04:40:13;;;;;;;;;27.75;25.75;;;;;9.14;77.36;100730.47;4989479;28;11474;-69
2023/04/22 04:42:45;;;;;;;;;27.00;25.25;;;;;9.11;77.64;100720.91;4997744;28;11466;-68
2023/04/22 04:45:18;;;;;;;;;28.25;26.25;;;;;9.12;77.99;100719.09;4997729;28;11426;-70
2023/04/22 04:47:46;;;;;;;;;27.75;23.75;;;;;9.13;77.90;100728.81;4985898;28;12213;-69
2023/04/22 04:50:19;;;;;;;;;25.25;22.50;;;;;9.12;78.09;100725.28;4999914;28;11525;-69
2023/04/22 04:52:49;;;;;;;;;27.25;24.75;;;;;9.12;77.95;100719.09;5017401;22;11360;-65
2023/04/22 04:55:20;;;;;;;;;25.50;22.00;;;;;9.15;78.05;100721.38;4987935;28;11579;-66
2023/04/22 04:57:48;;;;;;;;;26.00;26.00;;;;;9.18;77.83;100720.19;4997724;28;11252;-65
2023/04/22 05:00:15;;;;;;;;;33.00;27.75;;;;;9.20;78.52;100727.03;5007055;28;11671;-65
2023/04/22 05:02:43;;;;;;;;;32.75;30.50;;;;;9.21;77.69;100727.88;4994794;28;11583;-66
2023/04/22 05:05:10;;;;;;;;;30.75;27.75;;;;;9.19;77.83;100725.34;4985712;28;11575;-66
2023/04/22 05:07:38;;;;;;;;;29.50;26.75;;;;;9.19;78.15;100716.47;4971012;28;11569;-66
2023/04/22 05:10:07;;;;;;;;;33.50;29.50;;;;;9.19;77.75;100711.94;4970424;28;11567;-66
2023/04/22 05:12:34;;;;;;;;;35.25;31.25;;;;;9.19;78.33;100720.00;4984838;28;11628;-66
2023/04/22 05:15:02;;;;;;;;;36.50;32.25;;;;;9.20;78.43;100720.84;4990655;28;11671;-66
2023/04/22 05:17:29;;;;;;;;;29.75;29.50;;;;;9.21;78.04;100722.50;5001937;28;11566;-66
2023/04/22 05:19:57;;;;;;;;;29.50;24.25;;;;;9.22;78.46;100718.78;4986425;28;11642;-66
2023/04/22 05:22:24;;;;;;;;;29.75;25.75;;;;;9.20;78.68;100716.31;4983354;28;11586;-67
2023/04/22 05:24:52;;;;;;;;;25.75;23.75;;;;;9.22;78.58;100714.25;4979806;28;11584;-67
2023/04/22 05:27:19;;;;;;;;;24.25;23.00;;;;;9.26;79.14;100723.59;4985000;28;11445;-66
2023/04/22 05:29:45;;;;;;;;;29.00;23.75;;;;;9.26;79.04;100717.38;4969724;28;11677;-66
2023/04/22 05:32:14;;;;;;;;;18.00;18.00;;;;;9.29;79.13;100720.53;4998301;28;11402;-66
2023/04/22 05:34:41;;;;;;;;;18.75;17.25;;;;;9.35;78.71;100716.25;4978692;28;11128;-66
2023/04/22 05:37:09;;;;;;;;;24.00;20.25;;;;;9.37;78.90;100720.44;4996843;28;11057;-66
2023/04/22 05:39:39;;;;;;;;;26.00;19.75;;;;;9.38;78.90;100711.34;4990709;28;11481;-66
2023/04/22 05:42:08;;;;;;;;;22.75;20.50;;;;;9.37;78.63;100717.75;4986429;28;11364;-66
2023/04/22 05:44:35;;;;;;;;;32.00;25.50;;;;;9.38;78.78;100730.13;4992105;28;11412;-66
2023/04/22 05:47:02;;;;;;;;;26.75;21.25;;;;;9.38;78.38;100723.94;4967274;28;11654;-66
2023/04/22 05:49:29;;;;;;;;;24.00;20.50;;;;;9.38;78.71;100726.63;4972212;28;11703;-66
2023/04/22 05:52:18;;;;;;;;;26.50;23.25;;;;;9.39;78.77;100728.28;4973100;28;11303;-66
2023/04/22 05:55:04;;;;;;;;;29.25;23.25;;;;;9.39;79.00;100729.09;4991822;28;11563;-65
2023/04/22 05:57:31;;;;;;;;;28.50;23.25;;;;;9.41;78.88;100726.25;4975264;28;11239;-65
2023/04/22 06:00:00;;;;;;;;;27.50;26.50;;;;;9.42;78.96;100730.59;4990450;28;11568;-65
2023/04/22 06:02:26;;;;;;;;;25.75;25.00;;;;;9.46;79.07;100733.75;4996463;28;11275;-65
2023/04/22 06:04:53;;;;;;;;;19.75;18.00;;;;;9.46;79.25;100736.44;4965287;28;11183;-65
2023/04/22 06:07:21;;;;;;;;;25.25;17.50;;;;;9.46;79.22;100731.88;4991613;28;11121;-65
2023/04/22 06:09:47;;;;;;;;;22.00;19.50;;;;;9.48;79.58;100734.38;4986575;28;11109;-65
2023/04/22 06:12:14;;;;;;;;;25.25;20.25;;;;;9.48;79.14;100735.22;4991614;28;11268;-65
2023/04/22 06:14:40;;;;;;;;;17.25;17.25;;;;;9.49;79.42;100734.19;4973977;28;11272;-65
2023/04/22 06:17:08;;;;;;;;;17.00;12.50;;;;;9.53;78.91;100737.34;4990505;28;11142;-65
2023/04/22 06:19:35;;;;;;;;;25.75;24.00;;;;;9.53;78.87;100729.28;4974496;28;11238;-66
2023/04/22 06:22:02;;;;;;;;;18.25;18.00;;;;;9.53;79.08;100716.69;4993220;28;12132;-66
2023/04/22 06:24:29;;;;;;;;;25.50;21.25;;;;;9.52;79.18;100716.84;4975596;28;11108;-66
2023/04/22 06:26:56;;;;;;;;;21.25;19.25;;;;;9.54;79.25;100712.13;4976195;28;11592;-66
2023/04/22 06:29:25;;;;;;;;;21.25;18.50;;;;;9.53;78.86;100705.94;4975951;28;11247;-66
2023/04/22 06:31:53;;;;;;;;;26.25;20.75;;;;;9.57;79.08;100698.31;4947627;28;11257;-67
2023/04/22 06:34:20;;;;;;;;;19.75;19.25;;;;;9.60;79.29;100703.28;4967434;28;11270;-68
2023/04/22 06:36:51;;;;;;;;;21.00;20.00;;;;;9.64;79.14;100704.56;4981674;28;11155;-66
2023/04/22 06:39:18;;;;;;;;;28.00;20.50;;;;;9.66;79.14;100695.31;4977098;28;11268;-66
2023/04/22 06:42:03;;;;;;;;;24.75;23.50;;;;;9.69;79.15;100687.91;4975242;28;11273;-66
2023/04/22 06:44:44;;;;;;;;;22.50;19.50;;;;;9.72;79.09;100690.19;4951633;28;11226;-66
2023/04/22 06:47:20;;;;;;;;;24.50;21.50;;;;;9.76;79.49;100694.13;4991677;28;10971;-66
2023/04/22 06:49:57;;;;;;;;;21.50;19.75;;;;;9.81;79.62;100692.56;4977632;28;11190;-65
2023/04/22 06:52:32;;;;;;;;;29.25;25.50;;;;;9.82;79.51;100688.00;4979680;28;10985;-67
2023/04/22 06:54:59;;;;;;;;;29.25;24.00;;;;;9.80;79.21;100684.66;4987695;28;11266;-67
2023/04/22 06:57:25;;;;;;;;;22.75;20.00;;;;;9.81;79.20;100679.13;4980878;28;11078;-68
2023/04/22 06:59:52;;;;;;;;;28.00;22.50;;;;;9.83;79.38;100668.16;4968283;28;11161;-68
2023/04/22 07:02:18;;;;;;;;;29.75;28.75;;;;;9.87;79.76;100672.13;4969152;28;11198;-67
2023/04/22 07:04:45;;;;;;;;;24.25;22.00;;;;;9.87;79.67;100667.56;4980461;28;11257;-66
2023/04/22 07:07:12;;;;;;;;;21.50;20.25;;;;;9.95;79.89;100671.97;4997392;28;11212;-67
2023/04/22 07:09:39;;;;;;;;;19.00;19.00;;;;;10.03;79.63;100668.31;4953481;28;11667;-67
2023/04/22 07:12:06;;;;;;;;;22.75;22.75;;;;;10.11;79.91;100660.13;4979151;28;10851;-67
2023/04/22 07:14:33;;;;;;;;;24.50;20.00;;;;;10.13;79.80;100658.91;4965548;28;10989;-67
2023/04/22 07:16:59;;;;;;;;;28.25;22.75;;;;;10.16;79.63;100661.19;4956981;28;11740;-67
2023/04/22 07:19:26;;;;;;;;;27.50;25.00;;;;;10.23;79.13;100663.94;4985299;28;11239;-68
2023/04/22 07:21:53;;;;;;;;;19.50;19.00;;;;;10.32;79.56;100667.31;4963038;28;11246;-67
2023/04/22 07:24:19;;;;;;;;;29.25;25.00;;;;;10.41;79.29;100671.50;4982105;28;10904;-65
2023/04/22 07:26:45;;;;;;;;;23.25;23.25;;;;;10.46;78.55;100662.88;4975275;28;11126;-66
2023/04/22 07:29:12;;;;;;;;;25.75;20.00;;;;;10.48;79.23;100668.88;4972102;28;10994;-67
2023/04/22 07:31:39;;;;;;;;;24.25;22.00;;;;;10.46;78.90;100671.78;4970059;28;10893;-68
2023/04/22 07:34:05;;;;;;;;;30.25;24.25;;;;;10.45;78.80;100674.66;4967857;28;11054;-67
2023/04/22 07:36:32;;;;;;;;;20.50;20.25;;;;;10.53;79.00;100675.34;4980858;28;11101;-66
2023/04/22 07:38:59;;;;;;;;;26.75;23.00;;;;;10.73;79.33;100669.22;4989749;28;10836;-68
2023/04/22 07:41:25;;;;;;;;;28.00;22.75;;;;;10.92;79.22;100670.34;4977121;28;11030;-66
2023/04/22 07:43:52;;;;;;;;;32.00;28.25;;;;;11.11;79.12;100673.13;4964542;28;10939;-66
2023/04/22 07:46:19;;;;;;;;;33.00;28.25;;;;;11.23;78.36;100659.06;4972807;28;11201;-66
2023/04/22 07:48:46;;;;;;;;;28.00;25.00;;;;;11.28;77.65;100657.41;4982643;28;10951;-66
2023/04/22 07:51:12;;;;;;;;;29.25;24.50;;;;;11.32;77.28;100666.75;4982778;28;10939;-67
2023/04/22 07:53:39;;;;;;;;;28.00;24.25;;;;;11.39;77.27;100674.88;4964448;28;10686;-66
2023/04/22 07:56:05;;;;;;;;;26.75;23.25;;;;;11.47;77.27;100669.28;4974625;28;10878;-68
2023/04/22 07:58:32;;;;;;;;;21.75;20.50;;;;;11.56;76.91;100669.94;4972699;28;10758;-66
2023/04/22 08:00:58;;;;;;;;;19.75;17.25;;;;;11.62;76.74;100669.91;4965953;28;11382;-68
2023/04/22 08:03:25;;;;;;;;;25.25;22.50;;;;;11.73;76.93;100675.75;4979381;28;11322;-68
2023/04/22 08:05:52;;;;;;;;;25.75;24.50;;;;;11.80;76.86;100680.13;4982141;28;10867;-68
2023/04/22 08:08:18;;;;;;;;;31.75;25.75;;;;;11.90;76.68;100679.72;4973535;28;10857;-67
2023/04/22 08:10:45;;;;;;;;;25.25;21.50;;;;;12.04;76.53;100678.72;4968388;28;10931;-68
2023/04/22 08:13:14;;;;;;;;;27.75;27.75;;;;;12.22;76.17;100688.03;4975455;28;10564;-68
2023/04/22 08:15:43;;;;;;;;;25.25;22.25;;;;;12.34;75.69;100672.88;4976787;28;10779;-67
2023/04/22 08:18:10;;;;;;;;;19.75;17.50;;;;;12.43;74.76;100677.00;4971945;28;10708;-68
2023/04/22 08:20:36;;;;;;;;;30.25;22.50;;;;;12.49;74.43;100669.94;4977824;28;10430;-67
2023/04/22 08:23:03;;;;;;;;;19.50;18.50;;;;;12.62;74.24;100670.72;4967902;28;10460;-65
2023/04/22 08:25:30;;;;;;;;;21.50;17.75;;;;;12.78;73.94;100655.09;4971055;28;10345;-66
2023/04/22 08:27:56;;;;;;;;;25.25;23.50;;;;;12.92;73.58;100650.47;4976981;28;10371;-65
2023/04/22 08:30:23;;;;;;;;;22.50;17.75;;;;;12.95;72.08;100641.94;4970766;28;10477;-68
2023/04/22 08:32:51;;;;;;;;;23.75;19.00;;;;;12.97;71.95;100639.88;4982900;28;10280;-67
2023/04/22 08:35:18;;;;;;;;;19.50;16.00;;;;;13.04;71.49;100629.84;4981238;28;10445;-67
2023/04/22 08:37:45;;;;;;;;;21.25;20.50;;;;;13.14;71.46;100626.69;4981331;28;10196;-67
2023/04/22 08:40:12;;;;;;;;;24.50;19.50;;;;;13.18;70.90;100622.50;4974134;28;10436;-67
2023/04/22 08:42:39;;;;;;;;;17.75;16.00;;;;;13.24;70.55;100627.88;4979340;28;10212;-66
2023/04/22 08:45:05;;;;;;;;;21.00;19.75;;;;;13.31;70.30;100628.69;4963482;28;10286;-66
2023/04/22 08:47:33;;;;;;;;;16.75;14.00;;;;;13.42;70.15;100631.75;4964572;28;10536;-65
2023/04/22 08:50:02;;;;;;;;;17.25;16.50;;;;;13.52;69.23;100630.19;4978115;28;10760;-67
2023/04/22 08:52:30;;;;;;;;;22.50;19.00;;;;;13.52;68.70;100632.91;4965760;28;10107;-67
2023/04/22 08:54:56;;;;;;;;;20.50;16.75;;;;;13.55;68.53;100637.06;4962245;28;9981;-66
2023/04/22 08:57:23;;;;;;;;;17.75;16.75;;;;;13.66;69.22;100630.13;4972415;28;9890;-66
2023/04/22 08:59:50;;;;;;;;;17.75;17.50;;;;;13.78;67.89;100633.78;4966032;28;10081;-66
2023/04/22 09:02:22;;;;;;;;;21.75;18.75;;;;;13.88;67.89;100625.97;4992540;28;10178;-66
2023/04/22 09:04:50;;;;;;;;;16.50;13.50;;;;;14.04;68.48;100630.00;4956108;28;10900;-67
2023/04/22 09:07:26;;;;;;;;;18.75;17.75;;;;;14.06;68.14;100627.91;4968520;28;9756;-67
2023/04/22 09:09:54;;;;;;;;;23.00;19.50;;;;;14.05;67.80;100626.25;4960440;28;10099;-67
2023/04/22 09:12:21;;;;;;;;;24.75;18.50;;;;;14.02;68.05;100624.81;4963995;28;10034;-67
2023/04/22 09:14:48;;;;;;;;;16.25;15.00;;;;;14.13;68.49;100622.41;4971171;28;10202;-70
2023/04/22 09:17:28;;;;;;;;;20.00;14.00;;;;;14.31;68.38;100620.56;4977132;28;9966;-67
2023/04/22 09:20:00;;;;;;;;;21.75;18.50;;;;;14.44;67.24;100629.63;4967630;28;10489;-66
2023/04/22 09:22:35;;;;;;;;;22.25;22.25;;;;;14.39;67.35;100619.47;4968773;28;9942;-66
2023/04/22 09:25:07;;;;;;;;;23.25;19.00;;;;;14.43;67.32;100620.66;4966958;28;9942;-66
2023/04/22 09:27:34;;;;;;;;;22.00;18.75;;;;;14.60;67.11;100610.09;4979584;28;9958;-66
2023/04/22 09:30:06;;;;;;;;;19.50;19.00;;;;;14.70;66.85;100610.38;4979442;28;9865;-65
2023/04/22 09:32:33;;;;;;;;;19.75;17.00;;;;;14.82;65.25;100610.44;4971109;28;9781;-64
2023/04/22 09:35:00;;;;;;;;;18.75;16.75;;;;;14.82;64.90;100605.84;4960844;28;9714;-66
2023/04/22 09:37:26;;;;;;;;;25.00;21.25;;;;;14.81;65.06;100608.78;4978572;28;9657;-66
2023/04/22 09:40:14;;;;;;;;;21.75;19.75;;;;;14.84;64.77;100598.31;4970220;28;9974;-68
2023/04/22 09:42:49;;;;;;;;;21.25;17.00;;;;;14.99;64.69;100592.50;4978719;28;10531;-66
2023/04/22 09:45:37;;;;;;;;;21.00;17.50;;;;;15.14;63.71;100588.53;4967314;28;10336;-68
2023/04/22 09:48:11;;;;;;;;;17.25;16.00;;;;;15.19;63.42;100575.09;4966509;28;10119;-67
2023/04/22 09:50:39;;;;;;;;;23.00;21.75;;;;;15.22;62.70;100578.19;4980655;28;10507;-67
2023/04/22 09:53:09;;;;;;;;;23.00;19.50;;;;;15.23;62.19;100563.59;4972745;28;9787;-67
2023/04/22 09:55:41;;;;;;;;;19.00;16.00;;;;;15.04;62.26;100548.44;4972566;28;9790;-67
2023/04/22 09:58:13;;;;;;;;;21.50;21.00;;;;;15.04;63.74;100548.44;4973872;28;9830;-66
2023/04/22 10:00:42;;;;;;;;;27.00;24.25;;;;;15.04;64.22;100541.13;5001688;28;9867;-66
2023/04/22 10:03:09;;;;;;;;;25.50;24.25;;;;;14.90;64.99;100547.78;4970636;28;9973;-68
2023/04/22 10:05:36;;;;;;;;;22.50;22.50;;;;;14.77;65.37;100546.09;4975185;28;10145;-67
2023/04/22 10:08:05;;;;;;;;;14.00;13.75;;;;;14.70;65.98;100564.31;4972046;28;9959;-67
2023/04/22 10:10:31;;;;;;;;;20.75;19.75;;;;;14.71;66.04;100573.28;4968981;28;9786;-67
2023/04/22 10:12:59;;;;;;;;;21.00;21.00;;;;;14.68;65.79;100590.81;4977989;28;9929;-66
2023/04/22 10:15:30;;;;;;;;;20.75;20.50;;;;;14.53;66.00;100599.31;4963612;28;10584;-67
2023/04/22 10:17:59;;;;;;;;;21.75;17.75;;;;;14.57;66.65;100600.53;4977064;28;9801;-66
2023/04/22 10:20:28;;;;;;;;;31.25;25.00;;;;;14.63;66.64;100597.97;4975615;28;10042;-66
2023/04/22 10:22:56;;;;;;;;;36.00;32.25;;;;;14.53;66.39;100601.19;4979652;28;10185;-67
2023/04/22 10:25:24;;;;;;;;;21.25;20.50;;;;;14.40;67.62;100612.16;4973441;28;10258;-66
2023/04/22 10:28:04;;;;;;;;;24.50;22.50;;;;;14.45;67.29;100609.59;4973572;28;10140;-68
2023/04/22 10:30:32;;;;;;;;;29.75;24.50;;;;;14.43;66.93;100603.59;4976689;28;10035;-68
2023/04/22 10:33:35;;;;;;;;;25.50;22.50;;;;;14.39;66.47;100591.56;4977939;28;10171;-67
2023/04/22 10:36:13;;;;;;;;;30.50;25.50;;;;;14.41;65.96;100589.44;4980445;28;10153;-67
2023/04/22 10:38:49;;;;;;;;;23.00;22.25;;;;;14.37;66.44;100594.47;4981307;28;10846;-68
2023/04/22 10:41:21;;;;;;;;;20.00;15.00;;;;;14.43;66.34;100590.88;4980641;28;10328;-67
2023/04/22 10:43:57;;;;;;;;;19.00;17.25;;;;;14.54;66.31;100592.88;4973956;28;9721;-67
2023/04/22 10:46:30;;;;;;;;;17.00;14.50;;;;;14.63;65.82;100592.56;4974151;28;10769;-67
2023/04/22 10:48:58;;;;;;;;;15.25;14.00;;;;;14.68;65.76;100598.13;4957673;28;9821;-65
2023/04/22 10:51:44;;;;;;;;;15.25;13.25;;;;;14.73;65.45;100592.84;4996139;28;9712;-66
2023/04/22 10:54:47;;;;;;;;;22.25;21.75;;;;;14.73;65.43;100590.94;4979325;28;9852;-68
2023/04/22 10:57:18;;;;;;;;;18.75;15.75;;;;;14.73;65.64;100595.53;4972733;28;9887;-68
2023/04/22 10:59:45;;;;;;;;;18.00;18.00;;;;;14.75;65.92;100596.16;4974524;28;9785;-68
2023/04/22 11:02:15;;;;;;;;;20.50;16.00;;;;;14.76;65.50;100604.06;4963512;28;9970;-68
2023/04/22 11:04:44;;;;;;;;;16.50;13.50;;;;;14.75;65.78;100602.41;4977297;28;9881;-68
2023/04/22 11:07:21;;;;;;;;;17.50;15.50;;;;;14.79;66.09;100600.06;4980469;28;9770;-68
2023/04/22 11:10:06;;;;;;;;;13.75;13.75;;;;;14.84;65.90;100609.16;4982656;28;10565;-68
2023/04/22 11:12:38;;;;;;;;;15.00;14.00;;;;;14.87;66.31;100607.03;4984659;28;9733;-68
2023/04/22 11:15:09;;;;;;;;;25.75;20.75;;;;;14.87;65.51;100602.47;4968812;28;9613;-67
2023/04/22 11:17:37;;;;;;;;;13.25;13.25;;;;;14.88;65.87;100597.88;4974309;28;9886;-67
2023/04/22 11:20:05;;;;;;;;;19.25;17.50;;;;;14.83;65.33;100593.13;4978346;28;9706;-67
2023/04/22 11:22:35;;;;;;;;;11.75;11.25;;;;;14.86;65.32;100589.13;4997676;28;9774;-67